sensor_id;sensor_type;location;lat;lon;timestamp;pressure;altitude;pressure_sealevel;temperature;humidity
55858;BME280;41779;52.360;31.026;2024-03-25T00:00:31;1013.4;;;6.7;64
55858;BME280;41779;52.360;31.026;2024-03-25T00:05:31;1013.5;;;6.5;64.4
55858;BME280;41779;52.360;31.026;2024-03-25T00:10:17;1013.4;;;6.4;64.6
55858;BME280;41779;52.360;31.026;2024-03-25T00:15:31;1013.4;;;6.3;64.6
55858;BME280;41779;52.360;31.026;2024-03-25T00:20:31;1013.4;;;6.1;64.7
55858;BME280;41779;52.360;31.026;2024-03-25T00:25:17;1013.4;;;6;65.1
55858;BME280;41779;52.360;31.026;2024-03-25T00:30:31;1013.4;;;6;65.2
55858;BME280;41779;52.360;31.026;2024-03-25T00:35:31;1013.3;;;5.9;65.3
55858;BME280;41779;52.360;31.026;2024-03-25T00:39:49;1013.3;;;5.9;65.3
55858;BME280;41779;52.360;31.026;2024-03-25T00:44:41;1013.3;;;5.8;65.5
55858;BME280;41779;52.360;31.026;2024-03-25T00:49:49;1013.3;;;5.7;65.8
55858;BME280;41779;52.360;31.026;2024-03-25T00:54:59;1013.3;;;5.6;66.3
55858;BME280;41779;52.360;31.026;2024-03-25T01:00:12;1013.5;;;5.6;65.9
55858;BME280;41779;52.360;31.026;2024-03-25T01:04:57;1013.5;;;5.6;65.9
55858;BME280;41779;52.360;31.026;2024-03-25T01:10:11;1013.5;;;5.7;65.6
55858;BME280;41779;52.360;31.026;2024-03-25T01:15:17;1013.6;;;5.8;65.7
55858;BME280;41779;52.360;31.026;2024-03-25T01:19:57;1013.6;;;5.8;65.7
55858;BME280;41779;52.360;31.026;2024-03-25T01:24:53;1013.4;;;5.9;65.9
55858;BME280;41779;52.360;31.026;2024-03-25T01:29:43;1013.4;;;5.9;65.6
55858;BME280;41779;52.360;31.026;2024-03-25T01:35:21;1013.4;;;5.8;65.7
55858;BME280;41779;52.360;31.026;2024-03-25T01:39:41;1013.4;;;5.8;65.7
55858;BME280;41779;52.360;31.026;2024-03-25T01:45:21;1013.5;;;5.7;65.6
55858;BME280;41779;52.360;31.026;2024-03-25T01:50:33;1013.4;;;5.5;65.7
55858;BME280;41779;52.360;31.026;2024-03-25T01:55:32;1013.5;;;5.5;66.2
55858;BME280;41779;52.360;31.026;2024-03-25T02:00:07;1013.5;;;5.4;66.3
55858;BME280;41779;52.360;31.026;2024-03-25T02:05:19;1013.5;;;5.4;66.1
55858;BME280;41779;52.360;31.026;2024-03-25T02:10:08;1013.5;;;5.5;66.1
55858;BME280;41779;52.360;31.026;2024-03-25T02:14:49;1013.5;;;5.5;66.1
55858;BME280;41779;52.360;31.026;2024-03-25T02:19:41;1013.5;;;5.6;65.9
55858;BME280;41779;52.360;31.026;2024-03-25T02:25:31;1013.5;;;5.6;65.5
55858;BME280;41779;52.360;31.026;2024-03-25T02:29:49;1013.5;;;5.6;65.5
55858;BME280;41779;52.360;31.026;2024-03-25T02:35:04;1013.5;;;5.6;65.6
55858;BME280;41779;52.360;31.026;2024-03-25T02:40:09;1013.7;;;5.3;65.8
55858;BME280;41779;52.360;31.026;2024-03-25T02:45:31;1013.7;;;5.3;65.8
55858;BME280;41779;52.360;31.026;2024-03-25T02:50:31;1013.7;;;5.2;66
55858;BME280;41779;52.360;31.026;2024-03-25T02:55:01;1013.7;;;5.2;66
55858;BME280;41779;52.360;31.026;2024-03-25T03:00:12;1013.7;;;5.3;66.1
55858;BME280;41779;52.360;31.026;2024-03-25T03:05:31;1013.8;;;5.4;65.7
55858;BME280;41779;52.360;31.026;2024-03-25T03:10:21;1013.8;;;5.5;65.6
55858;BME280;41779;52.360;31.026;2024-03-25T03:14:59;1013.8;;;5.5;65.6
55858;BME280;41779;52.360;31.026;2024-03-25T03:20:11;1013.9;;;5.6;65.3
55858;BME280;41779;52.360;31.026;2024-03-25T03:24:53;1013.9;;;5.6;65.3
55858;BME280;41779;52.360;31.026;2024-03-25T03:30:31;1013.9;;;5.6;65.5
55858;BME280;41779;52.360;31.026;2024-03-25T03:34:49;1013.9;;;5.6;65.5
55858;BME280;41779;52.360;31.026;2024-03-25T03:40:01;1014;;;5.7;65.2
55858;BME280;41779;52.360;31.026;2024-03-25T03:44:59;1014;;;5.6;64.7
55858;BME280;41779;52.360;31.026;2024-03-25T03:49:49;1014.1;;;5.6;64.6
55858;BME280;41779;52.360;31.026;2024-03-25T03:55:08;1014.1;;;5.6;64.6
55858;BME280;41779;52.360;31.026;2024-03-25T03:59:41;1014.1;;;5.6;64.6
55858;BME280;41779;52.360;31.026;2024-03-25T04:04:59;1014.2;;;5.5;64.7
55858;BME280;41779;52.360;31.026;2024-03-25T04:09:47;1014.3;;;5.5;65
55858;BME280;41779;52.360;31.026;2024-03-25T04:15:09;1014.5;;;5.5;64.6
55858;BME280;41779;52.360;31.026;2024-03-25T04:20:21;1014.5;;;5.5;64.6
55858;BME280;41779;52.360;31.026;2024-03-25T04:25:31;1014.5;;;5.5;64.4
55858;BME280;41779;52.360;31.026;2024-03-25T04:29:41;1014.5;;;5.5;64.4
55858;BME280;41779;52.360;31.026;2024-03-25T04:35:11;1014.7;;;5.7;64.3
55858;BME280;41779;52.360;31.026;2024-03-25T04:40:31;1014.7;;;5.8;64.4
55858;BME280;41779;52.360;31.026;2024-03-25T04:45:01;1014.7;;;5.8;64.4
55858;BME280;41779;52.360;31.026;2024-03-25T04:49:41;1014.7;;;6;64.5
55858;BME280;41779;52.360;31.026;2024-03-25T04:54:43;1014.7;;;6;64.2
55858;BME280;41779;52.360;31.026;2024-03-25T04:59:53;1014.7;;;6;64.5
55858;BME280;41779;52.360;31.026;2024-03-25T05:05:31;1014.8;;;6;65
55858;BME280;41779;52.360;31.026;2024-03-25T05:10:06;1014.8;;;5.8;65.5
55858;BME280;41779;52.360;31.026;2024-03-25T05:15:31;1014.8;;;5.8;65.5
55858;BME280;41779;52.360;31.026;2024-03-25T05:20:06;1014.9;;;5.9;65.4
55858;BME280;41779;52.360;31.026;2024-03-25T05:24:51;1014.9;;;5.9;65.4
55858;BME280;41779;52.360;31.026;2024-03-25T05:29:41;1015;;;6;65.2
55858;BME280;41779;52.360;31.026;2024-03-25T05:34:49;1014.9;;;6.1;64.9
55858;BME280;41779;52.360;31.026;2024-03-25T05:39:49;1014.8;;;5.9;65.2
55858;BME280;41779;52.360;31.026;2024-03-25T05:44:41;1014.8;;;6;65.7
55858;BME280;41779;52.360;31.026;2024-03-25T05:50:01;1014.8;;;6.1;65.5
55858;BME280;41779;52.360;31.026;2024-03-25T05:55:17;1015;;;6.1;65.5
55858;BME280;41779;52.360;31.026;2024-03-25T06:00:31;1014.9;;;6.2;65.6
55858;BME280;41779;52.360;31.026;2024-03-25T06:04:41;1014.9;;;6.2;65.6
55858;BME280;41779;52.360;31.026;2024-03-25T06:10:34;1015;;;7.6;63.2
55858;BME280;41779;52.360;31.026;2024-03-25T06:14:59;1015;;;7.6;63.2
55858;BME280;41779;52.360;31.026;2024-03-25T06:20:21;1015;;;8;62.3
55858;BME280;41779;52.360;31.026;2024-03-25T06:24:59;1015;;;8;62.3
55858;BME280;41779;52.360;31.026;2024-03-25T06:30:04;1015;;;8.4;61.5
55858;BME280;41779;52.360;31.026;2024-03-25T06:35:29;1015.2;;;8.8;60.9
55858;BME280;41779;52.360;31.026;2024-03-25T06:40:29;1015.2;;;9;60.4
55858;BME280;41779;52.360;31.026;2024-03-25T06:45:08;1015.1;;;9.6;59.4
55858;BME280;41779;52.360;31.026;2024-03-25T06:50:30;1015.1;;;10.3;59.1
55858;BME280;41779;52.360;31.026;2024-03-25T06:55:11;1015;;;11.6;57.3
55858;BME280;41779;52.360;31.026;2024-03-25T07:00:18;1014.9;;;13.8;51.4
55858;BME280;41779;52.360;31.026;2024-03-25T07:05:18;1014.9;;;16.6;45.4
55858;BME280;41779;52.360;31.026;2024-03-25T07:09:41;1014.9;;;16.6;45.4
55858;BME280;41779;52.360;31.026;2024-03-25T07:14:51;1014.7;;;19.1;41.6
55858;BME280;41779;52.360;31.026;2024-03-25T07:19:49;1014.6;;;20.9;41.1
55858;BME280;41779;52.360;31.026;2024-03-25T07:24:42;1014.5;;;22.8;39.2
55858;BME280;41779;52.360;31.026;2024-03-25T07:30:08;1014.5;;;25.1;34.6
55858;BME280;41779;52.360;31.026;2024-03-25T07:35:11;1014.5;;;25.6;30.3
55858;BME280;41779;52.360;31.026;2024-03-25T07:39:41;1014.5;;;25.6;30.3
55858;BME280;41779;52.360;31.026;2024-03-25T07:45:31;1014.5;;;26.2;28.1
55858;BME280;41779;52.360;31.026;2024-03-25T07:50:17;1014.4;;;26.7;27.2
55858;BME280;41779;52.360;31.026;2024-03-25T07:54:58;1014.4;;;26.7;27.2
55858;BME280;41779;52.360;31.026;2024-03-25T07:59:53;1014.5;;;26.9;27
55858;BME280;41779;52.360;31.026;2024-03-25T08:04:59;1014.5;;;26.8;26.7
55858;BME280;41779;52.360;31.026;2024-03-25T08:10:32;1014.5;;;27.2;26.6
55858;BME280;41779;52.360;31.026;2024-03-25T08:15:02;1014.5;;;27.2;26.6
55858;BME280;41779;52.360;31.026;2024-03-25T08:19:44;1014.6;;;27.2;26.5
55858;BME280;41779;52.360;31.026;2024-03-25T08:25:18;1014.8;;;23.3;27.8
55858;BME280;41779;52.360;31.026;2024-03-25T08:30:32;1014.9;;;21.4;29.1
55858;BME280;41779;52.360;31.026;2024-03-25T08:34:59;1014.9;;;21.4;29.1
55858;BME280;41779;52.360;31.026;2024-03-25T08:40:22;1014.9;;;20.7;31.5
55858;BME280;41779;52.360;31.026;2024-03-25T08:45:08;1014.9;;;21.6;30
55858;BME280;41779;52.360;31.026;2024-03-25T08:49:40;1014.9;;;21.6;30
55858;BME280;41779;52.360;31.026;2024-03-25T08:54:40;1014.8;;;22.9;29.2
55858;BME280;41779;52.360;31.026;2024-03-25T08:59:40;1014.8;;;24.8;27.9
55858;BME280;41779;52.360;31.026;2024-03-25T09:04:42;1014.8;;;26;26.3
55858;BME280;41779;52.360;31.026;2024-03-25T09:09:42;1014.8;;;26.8;24
55858;BME280;41779;52.360;31.026;2024-03-25T09:15:16;1014.7;;;28.1;22.1
55858;BME280;41779;52.360;31.026;2024-03-25T09:20:30;1014.7;;;28.6;22
55858;BME280;41779;52.360;31.026;2024-03-25T09:25:19;1014.7;;;28.8;21.2
55858;BME280;41779;52.360;31.026;2024-03-25T09:29:40;1014.7;;;28.8;21.2
55858;BME280;41779;52.360;31.026;2024-03-25T09:35:04;1014.8;;;28.1;21.3
55858;BME280;41779;52.360;31.026;2024-03-25T09:40:30;1014.8;;;25.8;22.4
55858;BME280;41779;52.360;31.026;2024-03-25T09:45:20;1014.8;;;24.9;22.6
55858;BME280;41779;52.360;31.026;2024-03-25T09:49:40;1014.8;;;24.9;22.6
55858;BME280;41779;52.360;31.026;2024-03-25T09:55:30;1014.8;;;23.2;23.6
55858;BME280;41779;52.360;31.026;2024-03-25T10:00:00;1014.8;;;23.2;23.6
55858;BME280;41779;52.360;31.026;2024-03-25T10:05:30;1014.7;;;23.4;24.7
55858;BME280;41779;52.360;31.026;2024-03-25T10:10:26;1014.6;;;24.7;23
55858;BME280;41779;52.360;31.026;2024-03-25T10:15:28;1014.6;;;25;22
55858;BME280;41779;52.360;31.026;2024-03-25T10:20:13;1014.6;;;24.3;22.9
55858;BME280;41779;52.360;31.026;2024-03-25T10:25:19;1014.6;;;23.6;23.7
55858;BME280;41779;52.360;31.026;2024-03-25T10:29:40;1014.6;;;23.6;23.7
55858;BME280;41779;52.360;31.026;2024-03-25T10:34:50;1014.6;;;23.6;23.6
55858;BME280;41779;52.360;31.026;2024-03-25T10:40:08;1014.5;;;23.8;23.7
55858;BME280;41779;52.360;31.026;2024-03-25T10:50:20;1014.6;;;23.4;24.5
55858;BME280;41779;52.360;31.026;2024-03-25T10:54:58;1014.6;;;23.4;24.5
55858;BME280;41779;52.360;31.026;2024-03-25T10:59:58;1014.6;;;23.9;23.8
55858;BME280;41779;52.360;31.026;2024-03-25T11:05:30;1014.6;;;23;25.2
55858;BME280;41779;52.360;31.026;2024-03-25T11:10:30;1014.6;;;21.4;26.8
55858;BME280;41779;52.360;31.026;2024-03-25T11:15:18;1014.6;;;19.9;27.6
55858;BME280;41779;52.360;31.026;2024-03-25T11:20:22;1014.6;;;19;28.8
55858;BME280;41779;52.360;31.026;2024-03-25T11:25:05;1014.6;;;19;28.8
55858;BME280;41779;52.360;31.026;2024-03-25T11:30:02;1014.7;;;17.8;30.6
55858;BME280;41779;52.360;31.026;2024-03-25T11:35:28;1014.6;;;16.3;32.3
55858;BME280;41779;52.360;31.026;2024-03-25T11:40:28;1014.6;;;15.9;32.9
55858;BME280;41779;52.360;31.026;2024-03-25T11:45:13;1014.6;;;15.8;33.9
55858;BME280;41779;52.360;31.026;2024-03-25T11:50:30;1014.6;;;15.7;35.6
55858;BME280;41779;52.360;31.026;2024-03-25T11:55:30;1014.6;;;15.7;36
55858;BME280;41779;52.360;31.026;2024-03-25T12:00:18;1014.6;;;15.7;35.4
55858;BME280;41779;52.360;31.026;2024-03-25T12:05:32;1014.6;;;15.8;34.6
55858;BME280;41779;52.360;31.026;2024-03-25T12:09:50;1014.6;;;15.8;34.6
55858;BME280;41779;52.360;31.026;2024-03-25T12:15:14;1014.6;;;16.1;33.9
55858;BME280;41779;52.360;31.026;2024-03-25T12:19:42;1014.6;;;16.1;33.9
55858;BME280;41779;52.360;31.026;2024-03-25T12:24:56;1014.6;;;16.1;33.8
55858;BME280;41779;52.360;31.026;2024-03-25T12:30:22;1014.6;;;15.8;33.2
55858;BME280;41779;52.360;31.026;2024-03-25T12:35:10;1014.5;;;15.7;33.5
55858;BME280;41779;52.360;31.026;2024-03-25T12:39:56;1014.5;;;15.7;33.5
55858;BME280;41779;52.360;31.026;2024-03-25T12:45:30;1014.6;;;15.3;33.7
55858;BME280;41779;52.360;31.026;2024-03-25T12:50:18;1014.6;;;15.2;33.9
55858;BME280;41779;52.360;31.026;2024-03-25T12:55:22;1014.6;;;15.2;34.3
55858;BME280;41779;52.360;31.026;2024-03-25T13:00:02;1014.6;;;15.2;34.3
55858;BME280;41779;52.360;31.026;2024-03-25T13:05:12;1014.5;;;15.1;34.8
55858;BME280;41779;52.360;31.026;2024-03-25T13:10:32;1014.5;;;15.1;34.6
55858;BME280;41779;52.360;31.026;2024-03-25T13:15:32;1014.5;;;14.9;34.9
55858;BME280;41779;52.360;31.026;2024-03-25T13:19:42;1014.5;;;14.9;34.9
55858;BME280;41779;52.360;31.026;2024-03-25T13:25:32;1014.5;;;14.7;35.3
55858;BME280;41779;52.360;31.026;2024-03-25T13:30:32;1014.5;;;14.6;35.1
55858;BME280;41779;52.360;31.026;2024-03-25T13:35:10;1014.5;;;14.6;35.9
55858;BME280;41779;52.360;31.026;2024-03-25T13:40:32;1014.5;;;14.5;36.1
55858;BME280;41779;52.360;31.026;2024-03-25T13:44:42;1014.5;;;14.5;36.1
55858;BME280;41779;52.360;31.026;2024-03-25T13:49:42;1014.5;;;14.5;36.8
55858;BME280;41779;52.360;31.026;2024-03-25T13:54:58;1014.5;;;14.5;37.5
55858;BME280;41779;52.360;31.026;2024-03-25T14:00:02;1014.5;;;14.6;37.2
55858;BME280;41779;52.360;31.026;2024-03-25T14:05:08;1014.6;;;14.5;36.7
55858;BME280;41779;52.360;31.026;2024-03-25T14:10:14;1014.6;;;14.4;36.6
55858;BME280;41779;52.360;31.026;2024-03-25T14:14:56;1014.6;;;14.4;36.6
55858;BME280;41779;52.360;31.026;2024-03-25T14:20:32;1014.5;;;14.2;37
55858;BME280;41779;52.360;31.026;2024-03-25T14:25:30;1014.5;;;14.1;36.7
55858;BME280;41779;52.360;31.026;2024-03-25T14:30:18;1014.5;;;14;36.5
55858;BME280;41779;52.360;31.026;2024-03-25T14:34:50;1014.5;;;14;36.5
55858;BME280;41779;52.360;31.026;2024-03-25T14:40:12;1014.5;;;13.9;36.4
55858;BME280;41779;52.360;31.026;2024-03-25T14:45:22;1014.5;;;13.9;35.6
55858;BME280;41779;52.360;31.026;2024-03-25T14:49:42;1014.5;;;13.9;35.6
55858;BME280;41779;52.360;31.026;2024-03-25T14:55:22;1014.6;;;13.6;36.3
55858;BME280;41779;52.360;31.026;2024-03-25T15:00:00;1014.6;;;13.6;36.3
55858;BME280;41779;52.360;31.026;2024-03-25T15:05:32;1014.5;;;13.6;36.5
55858;BME280;41779;52.360;31.026;2024-03-25T15:09:42;1014.5;;;13.6;36.5
55858;BME280;41779;52.360;31.026;2024-03-25T15:15:04;1014.5;;;13.6;36.7
55858;BME280;41779;52.360;31.026;2024-03-25T15:20:00;1014.5;;;13.6;37
55858;BME280;41779;52.360;31.026;2024-03-25T15:24:54;1014.4;;;13.5;36.9
55858;BME280;41779;52.360;31.026;2024-03-25T15:29:42;1014.4;;;13.5;37
55858;BME280;41779;52.360;31.026;2024-03-25T15:34:50;1014.5;;;13.4;37.5
55858;BME280;41779;52.360;31.026;2024-03-25T15:39:50;1014.6;;;13.4;38
55858;BME280;41779;52.360;31.026;2024-03-25T15:45:04;1014.6;;;13.3;37.9
55858;BME280;41779;52.360;31.026;2024-03-25T15:49:44;1014.7;;;13.1;38.6
55858;BME280;41779;52.360;31.026;2024-03-25T15:55:32;1014.7;;;12.8;40.6
55858;BME280;41779;52.360;31.026;2024-03-25T16:00:14;1014.7;;;12.6;41.8
55858;BME280;41779;52.360;31.026;2024-03-25T16:05:32;1014.7;;;12.5;41.8
55858;BME280;41779;52.360;31.026;2024-03-25T16:10:12;1014.7;;;12.4;41.9
55858;BME280;41779;52.360;31.026;2024-03-25T16:15:32;1014.7;;;12.4;42.7
55858;BME280;41779;52.360;31.026;2024-03-25T16:20:22;1014.8;;;12.3;43
55858;BME280;41779;52.360;31.026;2024-03-25T16:24:54;1014.8;;;12.3;43
55858;BME280;41779;52.360;31.026;2024-03-25T16:30:13;1014.9;;;12.1;44.2
55858;BME280;41779;52.360;31.026;2024-03-25T16:35:02;1014.9;;;12.1;44.2
55858;BME280;41779;52.360;31.026;2024-03-25T16:40:33;1015.1;;;12;44.1
55858;BME280;41779;52.360;31.026;2024-03-25T16:45:18;1015.1;;;12;44.4
55858;BME280;41779;52.360;31.026;2024-03-25T16:50:32;1015.2;;;12;45.2
55858;BME280;41779;52.360;31.026;2024-03-25T16:55:32;1015.3;;;12;45.8
55858;BME280;41779;52.360;31.026;2024-03-25T17:00:32;1015.3;;;12.1;45.6
55858;BME280;41779;52.360;31.026;2024-03-25T17:05:08;1015.3;;;12;45.9
55858;BME280;41779;52.360;31.026;2024-03-25T17:09:58;1015.3;;;12;45.9
55858;BME280;41779;52.360;31.026;2024-03-25T17:15:08;1015.3;;;12;45.9
55858;BME280;41779;52.360;31.026;2024-03-25T17:19:48;1015.3;;;12;45.9
55858;BME280;41779;52.360;31.026;2024-03-25T17:24:52;1015.3;;;12;45.7
55858;BME280;41779;52.360;31.026;2024-03-25T17:29:56;1015.3;;;12;45.9
55858;BME280;41779;52.360;31.026;2024-03-25T17:35:08;1015.4;;;12;45.9
55858;BME280;41779;52.360;31.026;2024-03-25T17:39:56;1015.4;;;12;45.9
55858;BME280;41779;52.360;31.026;2024-03-25T17:45:31;1015.4;;;12;45.9
55858;BME280;41779;52.360;31.026;2024-03-25T17:50:16;1015.4;;;11.9;46.6
55858;BME280;41779;52.360;31.026;2024-03-25T17:55:30;1015.4;;;11.9;46.5
55858;BME280;41779;52.360;31.026;2024-03-25T18:00:08;1015.4;;;11.8;47.1
55858;BME280;41779;52.360;31.026;2024-03-25T18:05:10;1015.4;;;11.8;47.3
55858;BME280;41779;52.360;31.026;2024-03-25T18:10:30;1015.4;;;11.8;47.2
55858;BME280;41779;52.360;31.026;2024-03-25T18:15:30;1015.4;;;11.7;46.7
55858;BME280;41779;52.360;31.026;2024-03-25T18:20:06;1015.4;;;11.6;46.5
55858;BME280;41779;52.360;31.026;2024-03-25T18:25:30;1015.4;;;11.4;46.8
55858;BME280;41779;52.360;31.026;2024-03-25T18:30:28;1015.4;;;11.3;46.9
55858;BME280;41779;52.360;31.026;2024-03-25T18:35:16;1015.4;;;11.2;47.3
55858;BME280;41779;52.360;31.026;2024-03-25T18:40:30;1015.4;;;11.3;47.4
55858;BME280;41779;52.360;31.026;2024-03-25T18:44:40;1015.4;;;11.3;47.4
55858;BME280;41779;52.360;31.026;2024-03-25T18:50:30;1015.4;;;11.4;47.5
55858;BME280;41779;52.360;31.026;2024-03-25T18:54:48;1015.4;;;11.4;47.5
55858;BME280;41779;52.360;31.026;2024-03-25T18:59:48;1015.4;;;11.4;47.8
55858;BME280;41779;52.360;31.026;2024-03-25T19:05:30;1015.4;;;11.3;48
55858;BME280;41779;52.360;31.026;2024-03-25T19:10:10;1015.3;;;11.3;47.9
55858;BME280;41779;52.360;31.026;2024-03-25T19:14:40;1015.3;;;11.3;47.9
55858;BME280;41779;52.360;31.026;2024-03-25T19:20:30;1015.4;;;11.2;48.3
55858;BME280;41779;52.360;31.026;2024-03-25T19:25:16;1015.4;;;11.1;48.5
55858;BME280;41779;52.360;31.026;2024-03-25T19:29:56;1015.4;;;11.1;48.5
55858;BME280;41779;52.360;31.026;2024-03-25T19:35:00;1015.4;;;11.1;48.9
55858;BME280;41779;52.360;31.026;2024-03-25T19:40:10;1015.4;;;11;49.5
55858;BME280;41779;52.360;31.026;2024-03-25T19:44:54;1015.4;;;11;49.5
55858;BME280;41779;52.360;31.026;2024-03-25T19:49:50;1015.4;;;10.9;49.6
55858;BME280;41779;52.360;31.026;2024-03-25T19:55:22;1015.4;;;10.8;50.3
55858;BME280;41779;52.360;31.026;2024-03-25T20:00:00;1015.4;;;10.8;50.3
55858;BME280;41779;52.360;31.026;2024-03-25T20:05:32;1015.5;;;10.8;50.2
55858;BME280;41779;52.360;31.026;2024-03-25T20:10:08;1015.5;;;10.8;50
55858;BME280;41779;52.360;31.026;2024-03-25T20:15:22;1015.5;;;10.8;50
55858;BME280;41779;52.360;31.026;2024-03-25T20:20:08;1015.6;;;10.8;50.4
55858;BME280;41779;52.360;31.026;2024-03-25T20:25:22;1015.6;;;10.7;50.5
55858;BME280;41779;52.360;31.026;2024-03-25T20:29:42;1015.6;;;10.7;50.5
55858;BME280;41779;52.360;31.026;2024-03-25T20:34:42;1015.6;;;10.6;50.5
55858;BME280;41779;52.360;31.026;2024-03-25T20:40:14;1015.7;;;10.3;51.5
55858;BME280;41779;52.360;31.026;2024-03-25T20:44:50;1015.7;;;10.3;51.5
55858;BME280;41779;52.360;31.026;2024-03-25T20:50:32;1015.7;;;10.2;51.9
55858;BME280;41779;52.360;31.026;2024-03-25T20:55:32;1015.7;;;10.1;51.9
55858;BME280;41779;52.360;31.026;2024-03-25T21:00:32;1015.8;;;10.1;52
55858;BME280;41779;52.360;31.026;2024-03-25T21:05:18;1015.9;;;10.1;52.8
55858;BME280;41779;52.360;31.026;2024-03-25T21:10:04;1015.9;;;10.1;52.8
55858;BME280;41779;52.360;31.026;2024-03-25T21:15:32;1015.9;;;10.2;53.3
55858;BME280;41779;52.360;31.026;2024-03-25T21:20:04;1015.9;;;10.2;53.3
55858;BME280;41779;52.360;31.026;2024-03-25T21:24:42;1016;;;10.2;52.9
55858;BME280;41779;52.360;31.026;2024-03-25T21:30:12;1016.1;;;10.2;53.9
55858;BME280;41779;52.360;31.026;2024-03-25T21:35:10;1016.1;;;10.1;53.8
55858;BME280;41779;52.360;31.026;2024-03-25T21:40:32;1016.1;;;10;53.9
55858;BME280;41779;52.360;31.026;2024-03-25T21:45:08;1016.1;;;9.8;54.7
55858;BME280;41779;52.360;31.026;2024-03-25T21:50:32;1016.1;;;9.7;54.7
55858;BME280;41779;52.360;31.026;2024-03-25T21:55:18;1016.1;;;9.6;54.7
55858;BME280;41779;52.360;31.026;2024-03-25T22:00:02;1016.1;;;9.6;54.7
55858;BME280;41779;52.360;31.026;2024-03-25T22:04:50;1016.2;;;9.5;55.4
55858;BME280;41779;52.360;31.026;2024-03-25T22:10:02;1016.2;;;9.4;55.6
55858;BME280;41779;52.360;31.026;2024-03-25T22:15:00;1016.2;;;9.4;55.5
55858;BME280;41779;52.360;31.026;2024-03-25T22:19:42;1016.2;;;9.4;55.5
55858;BME280;41779;52.360;31.026;2024-03-25T22:25:32;1016.4;;;9.4;55.5
55858;BME280;41779;52.360;31.026;2024-03-25T22:30:24;1016.3;;;9.5;55.2
55858;BME280;41779;52.360;31.026;2024-03-25T22:35:32;1016.4;;;9.5;55.8
55858;BME280;41779;52.360;31.026;2024-03-25T22:39:50;1016.4;;;9.5;55.8
55858;BME280;41779;52.360;31.026;2024-03-25T22:45:32;1016.5;;;9.7;55.6
55858;BME280;41779;52.360;31.026;2024-03-25T22:50:32;1016.5;;;9.7;55.4
55858;BME280;41779;52.360;31.026;2024-03-25T22:55:22;1016.5;;;9.7;56.2
55858;BME280;41779;52.360;31.026;2024-03-25T22:59:42;1016.5;;;9.7;56.2
55858;BME280;41779;52.360;31.026;2024-03-25T23:04:52;1016.5;;;9.7;56.1
55858;BME280;41779;52.360;31.026;2024-03-25T23:09:42;1016.5;;;9.7;55.5
55858;BME280;41779;52.360;31.026;2024-03-25T23:15:32;1016.5;;;9.7;55.3
55858;BME280;41779;52.360;31.026;2024-03-25T23:19:50;1016.5;;;9.7;55.3
55858;BME280;41779;52.360;31.026;2024-03-25T23:25:30;1016.6;;;9.8;55.3
55858;BME280;41779;52.360;31.026;2024-03-25T23:29:42;1016.6;;;9.8;55.3
55858;BME280;41779;52.360;31.026;2024-03-25T23:35:10;1016.6;;;9.8;55.9
55858;BME280;41779;52.360;31.026;2024-03-25T23:40:22;1016.7;;;9.7;55.7
55858;BME280;41779;52.360;31.026;2024-03-25T23:45:00;1016.7;;;9.7;55.7
55858;BME280;41779;52.360;31.026;2024-03-25T23:50:08;1016.6;;;9.6;56.3
55858;BME280;41779;52.360;31.026;2024-03-25T23:55:10;1016.6;;;9.5;56.7
